• Join FlightAware (Why Join?)
  • Login
  • US Flag 
05:00AM EST


 

Airport Tracker/Info


-or-


 

Live Flight TrackerFlight Track Log ✈ N9503M ✈ 28-Apr-2013 ✈ KMRB - KMGY

Flight Track Log - Related Links

Times and Time Zones

All times are in EDT time to prevent confusion due to time zone crossing. See the N9503M flight status page for this flight to view local times or setup timezone preferences in your user account.

Time Position Orientation Groundspeed Altitude Reporting Facility
EDT Latitude Longitude Course Direction KTS MPH feet Rate Location/Type
12:46PM 39.3667 -77.6833 293° West 142 163 2,900  Level Potomac TRACON
12:47PM 39.3833 -77.7333 293° West 142 163 3,200 360 Climbing Potomac TRACON
12:48PM 39.3833 -77.7667 270° West 131 151 3,700 360 Climbing Potomac TRACON
12:50PM 39.3864 -77.8392 273° West 124 143 4,300 360 Climbing Washington Center
12:51PM 39.3919 -77.8794 280° West 119 137 4,800 540 Climbing Washington Center
12:52PM 39.3933 -77.9172 273° West 119 137 5,400 420 Climbing Washington Center
12:53PM 39.4008 -77.9631 282° West 119 137 5,700 240 Climbing Washington Center
12:54PM 39.4042 -78.0061 276° West 119 137 5,900 120 Climbing Washington Center
12:55PM 39.4094 -78.0519 278° West 125 144 6,000  Climbing Washington Center
12:56PM 39.4189 -78.1008 284° West 130 150 6,000  Level Washington Center
12:57PM 39.4303 -78.1494 287° West 135 155 6,000  Level Washington Center
12:58PM 39.4333 -78.2006 274° West 141 162 6,000  Level Washington Center
12:59PM 39.4386 -78.2464 278° West 141 162 6,000 -60 Level Washington Center
01:00PM 39.4397 -78.2950 272° West 141 162 5,900  Descending Washington Center
01:01PM 39.4428 -78.3433 275° West 141 162 6,000  Climbing Washington Center
01:02PM 39.4417 -78.3892 268° West 141 162 6,000  Level Washington Center
01:03PM 39.4425 -78.4347 271° West 136 157 6,000  Level Washington Center
01:04PM 39.4500 -78.4808 282° West 136 157 6,100  Climbing Washington Center
01:05PM 39.4572 -78.5267 282° West 136 157 6,000  Descending Washington Center
01:06PM 39.4622 -78.5728 278° West 136 157 6,200  Climbing Washington Center
01:07PM 39.4650 -78.6472 273° West 127 146 6,100 -60 Descending Cleveland Center
01:08PM 39.4658 -78.6928 271° West 124 143 6,100  Level Cleveland Center
01:09PM 39.4728 -78.7411 281° West 125 144 6,100  Level Cleveland Center
01:10PM 39.4775 -78.7814 279° West 122 140 6,100  Level Cleveland Center
01:11PM 39.4783 -78.8242 271° West 118 136 6,100  Level Cleveland Center
01:12PM 39.4811 -78.8753 274° West 128 147 6,100  Level Cleveland Center
01:13PM 39.4858 -78.9181 278° West 128 147 6,100  Level Cleveland Center
01:14PM 39.4908 -78.9664 278° West 131 151 6,100 -60 Level Cleveland Center
01:16PM 39.5294 -78.9890 336° Northwest  Level FlightAware Approximate
01:23PM 39.6129 -79.2563 258° West  Level FlightAware Approximate
01:24PM 39.6052 -79.3023 258° West  Level FlightAware Approximate
01:25PM 39.5986 -79.3485 263° West  Level FlightAware Approximate
01:26PM 39.5941 -79.3952 263° West  Level FlightAware Approximate
01:27PM 39.5897 -79.4419 263° West  Level FlightAware Approximate
01:28PM 39.5852 -79.4885 263° West  Level FlightAware Approximate
01:29PM 39.5807 -79.5352 263° West  Level FlightAware Approximate
01:30PM 39.5762 -79.5819 263° West  Level FlightAware Approximate
01:31PM 39.5717 -79.6285 263° West  Level FlightAware Approximate
01:32PM 39.5672 -79.6752 263° West  Level FlightAware Approximate
01:33PM 39.5626 -79.7218 263° West  Level FlightAware Approximate
01:34PM 39.5580 -79.7685 263° West  Level FlightAware Approximate
01:35PM 39.5535 -79.8151 263° West  Level FlightAware Approximate
01:36PM 39.5502 -79.8618 271° West  Level FlightAware Approximate
01:37PM 39.5511 -79.9088 271° West  Level FlightAware Approximate
01:38PM 39.5519 -79.9558 271° West  Level FlightAware Approximate
01:39PM 39.5527 -80.0028 271° West  Level FlightAware Approximate
01:40PM 39.5535 -80.0498 271° West  Level FlightAware Approximate
01:41PM 39.5543 -80.0968 271° West  Level FlightAware Approximate
01:42PM 39.5551 -80.1438 271° West  Level FlightAware Approximate
01:43PM 39.5558 -80.1908 271° West  Level FlightAware Approximate
01:44PM 39.5565 -80.2378 271° West  Level FlightAware Approximate
01:45PM 39.5572 -80.2848 271° West  Level FlightAware Approximate
01:45PM 39.5575 -80.2975 271° West 82 94 6,000  Level Indianapolis Center
01:46PM 39.5579 -80.3318 271° West  Level FlightAware Approximate
01:46PM 39.5631 -80.3447 279° West 126 145 6,000  Level Indianapolis Center
01:47PM 39.5586 -80.3789 271° West  Level FlightAware Approximate
01:47PM 39.5692 -80.3994 278° West 127 146 6,000  Level Indianapolis Center
01:48PM 39.5592 -80.4259 271° West  Level FlightAware Approximate
01:48PM 39.5731 -80.4428 277° West 126 145 6,000  Level Indianapolis Center
01:49PM 39.5599 -80.4729 271° West  Level FlightAware Approximate
01:49PM 39.5767 -80.4847 276° West 122 140 6,000  Level Indianapolis Center
01:50PM 39.5605 -80.5199 271° West  Level FlightAware Approximate
01:50PM 39.5719 -80.5300 262° West 125 144 6,100  Level Indianapolis Center
01:50PM 39.5731 -80.5508 274° West 128 147 6,100 -120 Level Cleveland Center
01:51PM 39.5689 -80.5911 262° West 123 142 6,000 -60 Descending Cleveland Center
01:52PM 39.5689 -80.6317 270° West 123 142 6,000  Level Cleveland Center
01:53PM 39.5650 -80.6569 259° West 119 137 6,100  Climbing Indianapolis Center
01:54PM 39.5675 -80.7083 274° West 119 137 6,000 -60 Descending Indianapolis Center
01:55PM 39.5639 -80.7528 264° West 121 139 6,000  Level Indianapolis Center
01:56PM 39.5636 -80.7961 270° West 121 139 6,000  Level Indianapolis Center
01:57PM 39.5625 -80.8408 268° West 122 140 6,000  Level Indianapolis Center
01:58PM 39.5625 -80.8836 270° West 121 139 6,000  Level Indianapolis Center
01:59PM 39.5642 -80.9267 273° West 120 138 6,000  Level Indianapolis Center
02:00PM 39.5658 -80.9700 273° West 120 138 6,000  Level Indianapolis Center
02:01PM 39.5678 -81.0217 273° West 119 137 6,100  Climbing Indianapolis Center
02:02PM 39.5678 -81.0644 270° West 120 138 6,100 -60 Level Indianapolis Center
02:03PM 39.5678 -81.1081 270° West 120 138 6,000  Descending Indianapolis Center
02:04PM 39.5667 -81.1517 268° West 121 139 6,200 60 Climbing Indianapolis Center
02:05PM 39.5664 -81.1931 270° West 119 137 6,200 -60 Level Indianapolis Center
02:06PM 39.5656 -81.2367 269° West 119 137 6,100 -120 Descending Indianapolis Center
02:07PM 39.5661 -81.2775 271° West 117 135 6,000  Descending Indianapolis Center
02:08PM 39.5669 -81.3289 271° West 118 136 6,200 60 Climbing Indianapolis Center
02:09PM 39.5681 -81.3719 272° West 119 137 6,200  Level Indianapolis Center
02:10PM 39.5694 -81.4167 272° West 122 140 6,200 -60 Level Indianapolis Center
02:11PM 39.5703 -81.4597 271° West 121 139 6,100  Descending Indianapolis Center
02:12PM 39.5700 -81.5036 270° West 121 139 6,200  Climbing Indianapolis Center
02:13PM 39.5683 -81.5447 267° West 117 135 6,100  Descending Indianapolis Center
02:14PM 39.5628 -81.5881 261° West 121 139 6,200  Climbing Indianapolis Center
02:15PM 39.5661 -81.6389 275° West 119 137 6,100 -180 Descending Indianapolis Center
02:16PM 39.5689 -81.6819 275° West 120 138 5,900  Descending Indianapolis Center
02:17PM 39.5728 -81.7217 277° West 114 131 6,100  Climbing Indianapolis Center
02:19PM 39.5742 -81.7603 273° West 109 125 6,000  Descending Indianapolis Center
02:20PM 39.5744 -81.8014 271° West 113 130 6,100  Climbing Indianapolis Center
02:21PM 39.5772 -81.8439 275° West 116 133 6,100  Level Indianapolis Center
02:22PM 39.5831 -81.8864 280° West 119 137 6,100  Level Indianapolis Center
02:23PM 39.5828 -81.9406 270° West 123 142 6,100 -60 Level Indianapolis Center
02:24PM 39.5781 -81.9847 262° West 123 142 6,000  Descending Indianapolis Center
02:25PM 39.5725 -82.0281 261° West 122 140 6,200 60 Climbing Indianapolis Center
02:26PM 39.5733 -82.0739 271° West 125 144 6,200 -120 Level Indianapolis Center
02:26PM 39.5756 -82.0967 277° West 128 147 6,100  Descending Indianapolis Center
02:27PM 39.5769 -82.1200 274° West 129 148 6,200  Climbing Indianapolis Center
02:27PM 39.5811 -82.1433 283° West 127 146 6,100 -120 Descending Indianapolis Center
02:28PM 39.5794 -82.1714 266° West 126 145 6,100  Level Indianapolis Center
02:28PM 39.5822 -82.1947 279° West 125 144 6,100  Level Indianapolis Center
02:29PM 39.5861 -82.2303 278° West 128 147 6,100  Level Indianapolis Center
02:30PM 39.5864 -82.2633 271° West 127 146 6,100  Level Indianapolis Center
02:30PM 39.5869 -82.2844 272° West 129 148 6,100  Level Indianapolis Center
02:31PM 39.5867 -82.3222 269° West 126 145 6,100 -60 Level Indianapolis Center
02:32PM 39.5850 -82.3553 266° West 126 145 6,000  Descending Indianapolis Center
02:32PM 39.5836 -82.3733 264° West 127 146 6,100 60 Climbing Indianapolis Center
02:33PM 39.5850 -82.4006 274° West 126 145 6,100  Level Indianapolis Center
02:33PM 39.5869 -82.4169 279° West 123 142 6,100 -120 Level Indianapolis Center
02:34PM 39.5858 -82.4444 267° West 122 140 6,000 -60 Descending Indianapolis Center
02:35PM 39.5878 -82.5033 272° West 123 142 6,000  Level Indianapolis Center
02:37PM 39.5877 -82.5731 270° West  Level FlightAware Approximate
02:37PM 39.5886 -82.5839 270° West 118 136 6,000  Level Indianapolis Center
02:38PM 39.5856 -82.6275 265° West 119 137 6,100  Climbing Indianapolis Center
02:39PM 39.5883 -82.6717 275° West 122 140 6,100  Level Indianapolis Center
02:40PM 39.5875 -82.7172 269° West 123 142 6,100  Level Indianapolis Center
02:41PM 39.5875 -82.7603 270° West 120 138 6,100 -60 Level Indianapolis Center
02:42PM 39.5886 -82.8047 272° West 122 140 6,000  Descending Indianapolis Center
02:43PM 39.5894 -82.8606 271° West 118 136 6,100  Climbing Indianapolis Center
02:44PM 39.5886 -82.8986 268° West 119 137 6,100  Level Indianapolis Center
02:45PM 39.5881 -82.9417 269° West 119 137 6,100  Level Indianapolis Center
02:46PM 39.5881 -82.9853 270° West 120 138 6,100  Level Indianapolis Center
02:47PM 39.5853 -83.0292 265° West 120 138 6,100 -60 Level Indianapolis Center
02:48PM 39.5861 -83.0739 271° West 123 142 6,000 -60 Descending Indianapolis Center
02:50PM 39.5892 -83.1367 274° West 118 136 6,000  Level Indianapolis Center
02:51PM 39.5892 -83.1692 270° West 117 135 6,100  Climbing Indianapolis Center
02:52PM 39.5911 -83.2033 274° West 117 135 6,100  Level Indianapolis Center
02:52PM 39.5919 -83.2478 271° West 117 135 6,100  Level Indianapolis Center
02:54PM 39.5969 -83.2972 277° West 118 136 6,100  Level Indianapolis Center
02:55PM 39.5997 -83.3381 275° West 118 136 6,100  Level Indianapolis Center
02:56PM 39.5972 -83.3811 266° West 115 132 6,100  Level Indianapolis Center
02:57PM 39.5933 -83.4322 264° West 118 136 6,100  Level Indianapolis Center
02:58PM 39.5917 -83.4661 266° West 118 136 6,100  Level Indianapolis Center
02:59PM 39.5939 -83.5133 274° West 116 133 6,100 -240 Level Indianapolis Center
03:00PM 39.6056 -83.5489 293° West 127 146 5,700 -420 Descending Indianapolis Center
03:01PM 39.6300 -83.5914 307° West 141 162 5,300 -480 Descending Indianapolis Center
03:02PM 39.6517 -83.6369 302° West 140 161 4,900 -420 Descending Indianapolis Center
03:03PM 39.6692 -83.6825 297° West 142 163 4,600 -300 Descending Indianapolis Center
03:04PM 39.6783 -83.7297 284° West 138 159 4,300 -300 Descending Indianapolis Center
03:05PM 39.6856 -83.7714 283° West 129 148 4,100 -300 Descending Indianapolis Center
03:05PM 39.6878 -83.7833 284° West 133 153 4,000 -300 Descending Indianapolis Center
03:06PM 39.6964 -83.8242 285° West 133 153 3,800 -300 Descending Indianapolis Center
03:06PM 39.6967 -83.8297 274° West 131 151 3,700 -420 Descending Indianapolis Center
03:07PM 39.7033 -83.8711 282° West 133 153 3,400 -300 Descending Indianapolis Center
03:07PM 39.7058 -83.8772 298° West 133 153 3,400 -420 Level Indianapolis Center
03:08PM 39.7164 -83.9189 288° West 150 173 3,000 -420 Descending Indianapolis Center
03:08PM 39.7158 -83.9258 264° West 135 155 3,000 60 Level Indianapolis Center
03:09PM 39.7278 -83.9611 294° West 133 153 3,100 60 Climbing Indianapolis Center
03:09PM 39.7281 -83.9700 272° West 133 153 3,100 -120 Level Indianapolis Center
03:10PM 39.7350 -84.0053 284° West 118 136 3,000  Descending Indianapolis Center
03:10PM 39.7386 -84.0194 288° West 125 144 3,100 -120 Climbing Indianapolis Center
03:11PM 39.7483 -84.0478 294° West 128 147 2,900 -120 Descending Indianapolis Center
03:11PM 39.7589 -84.0572 325° Northwest 133 153 3,000 180 Climbing Indianapolis Center
03:12PM 39.7603 -84.0847 274° West 117 135 3,100 180 Climbing Indianapolis Center
03:12PM 39.7572 -84.0978 253° West 123 142 3,200 60 Climbing Indianapolis Center
03:13PM 39.7447 -84.1208 235° Southwest 107 123 3,200 -120 Level Indianapolis Center
03:13PM 39.7406 -84.1317 243° Southwest 114 131 3,100 -240 Descending Indianapolis Center
03:14PM 39.7236 -84.1633 235° Southwest 113 130 2,900 -240 Descending Indianapolis Center
03:16PM 39.6812 -84.1795 196° South  Level FlightAware Approximate
03:23PM 39.5833 -84.2167 212° Southwest  Level FlightAware Approximate
03:24PM 39.5890 -84.2249 212° Southwest  Level Estimated